Capitol Logistics 7379

Operating for MZN



KRFD
Chicago/Rockford International Airport
Rockford, Illinois
KBWI
Baltimore/Washington International Thurgood Marshall Airport
Baltimore, Maryland

Activity Log

Date Flight Route Aircraft Duration
03/31/2021 CPX7379 JERKY JOT FWA AIR KEMAN ANTHM3 B763 1h 43m

Route Details

Aircraft Information
Primary: Boeing 767-300BDSF
Backup: Boeing 757-200SF
Route Data
Distance: 595nm
Duration: 1h 33m
Recm'd Route: JERKY JOT FWA AIR KEMAN ANTHM3
Origin Wx: KRFD 180054Z 01007KT 10SM BKN250 12/M01 A2995 RMK AO2 SLP146 T01171011
Dest. Wx: KBWI 180054Z 32003KT 10SM FEW140 SCT200 12/03 A2985 RMK AO2 SLP107 T01220028
Notes: